sensor_id;sensor_type;location;lat;lon;timestamp;P1;durP1;ratioP1;P2;durP2;ratioP2
9972;SDS011;5027;53.560;10.062;2023-09-08T00:00:51;6.27;;;5.53;;
9972;SDS011;5027;53.560;10.062;2023-09-08T00:03:18;6.77;;;5.67;;
9972;SDS011;5027;53.560;10.062;2023-09-08T00:05:45;7.63;;;5.47;;
9972;SDS011;5027;53.560;10.062;2023-09-08T00:08:11;6.20;;;5.20;;
9972;SDS011;5027;53.560;10.062;2023-09-08T00:10:38;5.80;;;5.23;;
9972;SDS011;5027;53.560;10.062;2023-09-08T00:13:05;6.50;;;5.40;;
9972;SDS011;5027;53.560;10.062;2023-09-08T00:15:34;6.23;;;5.67;;
9972;SDS011;5027;53.560;10.062;2023-09-08T00:18:02;9.80;;;5.77;;
9972;SDS011;5027;53.560;10.062;2023-09-08T00:20:29;6.10;;;5.43;;
9972;SDS011;5027;53.560;10.062;2023-09-08T00:22:56;6.13;;;5.53;;
9972;SDS011;5027;53.560;10.062;2023-09-08T00:25:23;8.77;;;5.47;;
9972;SDS011;5027;53.560;10.062;2023-09-08T00:27:50;6.30;;;5.50;;
9972;SDS011;5027;53.560;10.062;2023-09-08T00:30:17;6.73;;;5.27;;
9972;SDS011;5027;53.560;10.062;2023-09-08T00:32:43;5.47;;;4.97;;
9972;SDS011;5027;53.560;10.062;2023-09-08T00:35:10;6.67;;;5.57;;
9972;SDS011;5027;53.560;10.062;2023-09-08T00:37:39;8.33;;;5.63;;
9972;SDS011;5027;53.560;10.062;2023-09-08T00:40:06;7.63;;;6.40;;
9972;SDS011;5027;53.560;10.062;2023-09-08T00:42:37;17.83;;;5.73;;
9972;SDS011;5027;53.560;10.062;2023-09-08T00:45:03;5.60;;;5.17;;
9972;SDS011;5027;53.560;10.062;2023-09-08T00:47:32;8.73;;;5.70;;
9972;SDS011;5027;53.560;10.062;2023-09-08T00:50:01;6.20;;;5.60;;
9972;SDS011;5027;53.560;10.062;2023-09-08T00:52:29;6.07;;;5.43;;
9972;SDS011;5027;53.560;10.062;2023-09-08T00:54:58;7.10;;;6.00;;
9972;SDS011;5027;53.560;10.062;2023-09-08T00:57:25;7.03;;;6.33;;
9972;SDS011;5027;53.560;10.062;2023-09-08T00:59:53;6.70;;;6.00;;
9972;SDS011;5027;53.560;10.062;2023-09-08T01:02:20;7.03;;;6.27;;
9972;SDS011;5027;53.560;10.062;2023-09-08T01:04:48;6.07;;;5.47;;
9972;SDS011;5027;53.560;10.062;2023-09-08T01:07:16;6.37;;;5.23;;
9972;SDS011;5027;53.560;10.062;2023-09-08T01:09:45;6.00;;;5.50;;
9972;SDS011;5027;53.560;10.062;2023-09-08T01:12:13;8.37;;;5.20;;
9972;SDS011;5027;53.560;10.062;2023-09-08T01:14:41;9.17;;;5.43;;
9972;SDS011;5027;53.560;10.062;2023-09-08T01:17:08;6.03;;;5.47;;
9972;SDS011;5027;53.560;10.062;2023-09-08T01:19:35;6.93;;;5.40;;
9972;SDS011;5027;53.560;10.062;2023-09-08T01:22:21;6.10;;;5.50;;
9972;SDS011;5027;53.560;10.062;2023-09-08T01:27:32;6.97;;;5.80;;
9972;SDS011;5027;53.560;10.062;2023-09-08T01:30:05;5.73;;;5.23;;
9972;SDS011;5027;53.560;10.062;2023-09-08T01:32:33;5.70;;;5.20;;
9972;SDS011;5027;53.560;10.062;2023-09-08T01:35:00;7.03;;;5.60;;
9972;SDS011;5027;53.560;10.062;2023-09-08T01:37:28;5.87;;;4.93;;
9972;SDS011;5027;53.560;10.062;2023-09-08T01:39:55;6.20;;;5.60;;
9972;SDS011;5027;53.560;10.062;2023-09-08T01:42:21;6.00;;;5.50;;
9972;SDS011;5027;53.560;10.062;2023-09-08T01:44:48;7.10;;;5.73;;
9972;SDS011;5027;53.560;10.062;2023-09-08T01:47:15;9.33;;;5.77;;
9972;SDS011;5027;53.560;10.062;2023-09-08T01:49:43;8.93;;;5.93;;
9972;SDS011;5027;53.560;10.062;2023-09-08T01:52:09;6.27;;;5.67;;
9972;SDS011;5027;53.560;10.062;2023-09-08T01:54:36;6.10;;;5.50;;
9972;SDS011;5027;53.560;10.062;2023-09-08T01:57:03;8.07;;;5.50;;
9972;SDS011;5027;53.560;10.062;2023-09-08T01:59:30;9.70;;;6.33;;
9972;SDS011;5027;53.560;10.062;2023-09-08T02:01:57;6.20;;;5.60;;
9972;SDS011;5027;53.560;10.062;2023-09-08T02:04:23;6.50;;;5.90;;
9972;SDS011;5027;53.560;10.062;2023-09-08T02:06:51;6.93;;;5.80;;
9972;SDS011;5027;53.560;10.062;2023-09-08T02:09:20;6.50;;;5.90;;
9972;SDS011;5027;53.560;10.062;2023-09-08T02:11:47;6.77;;;6.10;;
9972;SDS011;5027;53.560;10.062;2023-09-08T02:14:14;6.57;;;5.97;;
9972;SDS011;5027;53.560;10.062;2023-09-08T02:16:41;7.50;;;6.00;;
9972;SDS011;5027;53.560;10.062;2023-09-08T02:19:08;8.10;;;5.90;;
9972;SDS011;5027;53.560;10.062;2023-09-08T02:21:34;7.77;;;5.53;;
9972;SDS011;5027;53.560;10.062;2023-09-08T02:24:02;6.73;;;5.67;;
9972;SDS011;5027;53.560;10.062;2023-09-08T02:26:30;6.37;;;5.67;;
9972;SDS011;5027;53.560;10.062;2023-09-08T02:29:00;7.93;;;5.63;;
9972;SDS011;5027;53.560;10.062;2023-09-08T02:31:27;9.30;;;6.20;;
9972;SDS011;5027;53.560;10.062;2023-09-08T02:33:55;7.17;;;5.80;;
9972;SDS011;5027;53.560;10.062;2023-09-08T02:36:22;6.77;;;5.87;;
9972;SDS011;5027;53.560;10.062;2023-09-08T02:38:54;6.77;;;5.50;;
9972;SDS011;5027;53.560;10.062;2023-09-08T02:41:22;11.73;;;5.93;;
9972;SDS011;5027;53.560;10.062;2023-09-08T02:43:49;8.13;;;6.13;;
9972;SDS011;5027;53.560;10.062;2023-09-08T02:46:17;8.50;;;6.53;;
9972;SDS011;5027;53.560;10.062;2023-09-08T02:48:43;6.83;;;6.23;;
9972;SDS011;5027;53.560;10.062;2023-09-08T02:51:10;8.10;;;7.07;;
9972;SDS011;5027;53.560;10.062;2023-09-08T02:53:38;6.90;;;6.07;;
9972;SDS011;5027;53.560;10.062;2023-09-08T02:56:05;8.30;;;5.90;;
9972;SDS011;5027;53.560;10.062;2023-09-08T02:58:32;10.20;;;9.30;;
9972;SDS011;5027;53.560;10.062;2023-09-08T03:01:09;6.93;;;6.20;;
9972;SDS011;5027;53.560;10.062;2023-09-08T03:03:38;6.73;;;6.13;;
9972;SDS011;5027;53.560;10.062;2023-09-08T03:06:05;8.53;;;7.30;;
9972;SDS011;5027;53.560;10.062;2023-09-08T03:08:32;7.57;;;6.67;;
9972;SDS011;5027;53.560;10.062;2023-09-08T03:11:00;7.90;;;6.90;;
9972;SDS011;5027;53.560;10.062;2023-09-08T03:13:27;8.33;;;5.77;;
9972;SDS011;5027;53.560;10.062;2023-09-08T03:15:55;7.47;;;6.63;;
9972;SDS011;5027;53.560;10.062;2023-09-08T03:18:23;9.50;;;6.47;;
9972;SDS011;5027;53.560;10.062;2023-09-08T03:20:50;8.73;;;7.07;;
9972;SDS011;5027;53.560;10.062;2023-09-08T03:23:17;6.80;;;6.10;;
9972;SDS011;5027;53.560;10.062;2023-09-08T03:25:43;7.00;;;6.40;;
9972;SDS011;5027;53.560;10.062;2023-09-08T03:28:11;6.57;;;6.00;;
9972;SDS011;5027;53.560;10.062;2023-09-08T03:30:38;7.10;;;6.40;;
9972;SDS011;5027;53.560;10.062;2023-09-08T03:33:04;7.30;;;6.23;;
9972;SDS011;5027;53.560;10.062;2023-09-08T03:35:32;8.87;;;7.07;;
9972;SDS011;5027;53.560;10.062;2023-09-08T03:37:59;7.40;;;6.70;;
9972;SDS011;5027;53.560;10.062;2023-09-08T03:40:26;10.27;;;7.10;;
9972;SDS011;5027;53.560;10.062;2023-09-08T03:42:53;7.97;;;6.77;;
9972;SDS011;5027;53.560;10.062;2023-09-08T03:45:20;11.33;;;6.47;;
9972;SDS011;5027;53.560;10.062;2023-09-08T03:47:47;10.23;;;6.30;;
9972;SDS011;5027;53.560;10.062;2023-09-08T03:50:14;8.27;;;6.83;;
9972;SDS011;5027;53.560;10.062;2023-09-08T03:52:44;7.37;;;6.63;;
9972;SDS011;5027;53.560;10.062;2023-09-08T03:55:12;9.33;;;7.27;;
9972;SDS011;5027;53.560;10.062;2023-09-08T03:57:39;7.70;;;6.83;;
9972;SDS011;5027;53.560;10.062;2023-09-08T04:00:06;9.20;;;7.00;;
9972;SDS011;5027;53.560;10.062;2023-09-08T04:02:39;8.83;;;6.63;;
9972;SDS011;5027;53.560;10.062;2023-09-08T04:05:06;7.63;;;6.90;;
9972;SDS011;5027;53.560;10.062;2023-09-08T04:07:33;10.27;;;6.97;;
9972;SDS011;5027;53.560;10.062;2023-09-08T04:10:00;9.17;;;6.83;;
9972;SDS011;5027;53.560;10.062;2023-09-08T04:12:30;8.03;;;7.07;;
9972;SDS011;5027;53.560;10.062;2023-09-08T04:14:57;9.70;;;6.97;;
9972;SDS011;5027;53.560;10.062;2023-09-08T04:17:23;8.47;;;7.10;;
9972;SDS011;5027;53.560;10.062;2023-09-08T04:19:50;7.63;;;6.93;;
9972;SDS011;5027;53.560;10.062;2023-09-08T04:22:17;8.33;;;7.20;;
9972;SDS011;5027;53.560;10.062;2023-09-08T04:24:46;7.77;;;6.87;;
9972;SDS011;5027;53.560;10.062;2023-09-08T04:27:13;7.83;;;6.53;;
9972;SDS011;5027;53.560;10.062;2023-09-08T04:29:41;7.93;;;7.07;;
9972;SDS011;5027;53.560;10.062;2023-09-08T04:32:08;9.27;;;8.30;;
9972;SDS011;5027;53.560;10.062;2023-09-08T04:34:36;7.63;;;6.90;;
9972;SDS011;5027;53.560;10.062;2023-09-08T04:37:07;12.60;;;8.13;;
9972;SDS011;5027;53.560;10.062;2023-09-08T04:39:34;8.60;;;6.97;;
9972;SDS011;5027;53.560;10.062;2023-09-08T04:42:03;9.07;;;7.30;;
9972;SDS011;5027;53.560;10.062;2023-09-08T04:44:30;8.77;;;7.13;;
9972;SDS011;5027;53.560;10.062;2023-09-08T04:46:57;8.13;;;7.37;;
9972;SDS011;5027;53.560;10.062;2023-09-08T04:49:24;7.30;;;6.70;;
9972;SDS011;5027;53.560;10.062;2023-09-08T04:51:51;8.83;;;7.47;;
9972;SDS011;5027;53.560;10.062;2023-09-08T04:54:18;8.17;;;7.37;;
9972;SDS011;5027;53.560;10.062;2023-09-08T04:56:47;7.73;;;6.97;;
9972;SDS011;5027;53.560;10.062;2023-09-08T04:59:14;7.70;;;6.90;;
9972;SDS011;5027;53.560;10.062;2023-09-08T05:01:42;7.67;;;6.97;;
9972;SDS011;5027;53.560;10.062;2023-09-08T05:04:10;10.53;;;7.03;;
9972;SDS011;5027;53.560;10.062;2023-09-08T05:06:37;7.67;;;6.97;;
9972;SDS011;5027;53.560;10.062;2023-09-08T05:09:05;7.43;;;6.73;;
9972;SDS011;5027;53.560;10.062;2023-09-08T05:11:33;8.67;;;7.87;;
9972;SDS011;5027;53.560;10.062;2023-09-08T05:14:00;12.27;;;7.63;;
9972;SDS011;5027;53.560;10.062;2023-09-08T05:16:27;8.27;;;7.23;;
9972;SDS011;5027;53.560;10.062;2023-09-08T05:19:15;8.87;;;7.93;;
9972;SDS011;5027;53.560;10.062;2023-09-08T05:21:42;8.67;;;6.67;;
9972;SDS011;5027;53.560;10.062;2023-09-08T05:24:09;8.77;;;7.40;;
9972;SDS011;5027;53.560;10.062;2023-09-08T05:26:37;8.53;;;7.67;;
9972;SDS011;5027;53.560;10.062;2023-09-08T05:29:05;11.27;;;7.67;;
9972;SDS011;5027;53.560;10.062;2023-09-08T05:31:32;8.17;;;7.37;;
9972;SDS011;5027;53.560;10.062;2023-09-08T05:33:59;10.10;;;7.90;;
9972;SDS011;5027;53.560;10.062;2023-09-08T05:36:26;9.30;;;7.63;;
9972;SDS011;5027;53.560;10.062;2023-09-08T05:38:53;12.37;;;8.70;;
9972;SDS011;5027;53.560;10.062;2023-09-08T05:41:20;8.70;;;7.90;;
9972;SDS011;5027;53.560;10.062;2023-09-08T05:43:47;10.83;;;8.67;;
9972;SDS011;5027;53.560;10.062;2023-09-08T05:46:14;10.17;;;7.27;;
9972;SDS011;5027;53.560;10.062;2023-09-08T05:48:41;9.50;;;8.47;;
9972;SDS011;5027;53.560;10.062;2023-09-08T05:51:07;13.13;;;8.43;;
9972;SDS011;5027;53.560;10.062;2023-09-08T05:53:35;9.47;;;7.63;;
9972;SDS011;5027;53.560;10.062;2023-09-08T05:56:06;12.03;;;7.57;;
9972;SDS011;5027;53.560;10.062;2023-09-08T05:58:33;9.60;;;7.43;;
9972;SDS011;5027;53.560;10.062;2023-09-08T06:01:01;12.30;;;8.13;;
9972;SDS011;5027;53.560;10.062;2023-09-08T06:03:30;10.17;;;8.10;;
9972;SDS011;5027;53.560;10.062;2023-09-08T06:05:58;8.90;;;7.93;;
9972;SDS011;5027;53.560;10.062;2023-09-08T06:08:24;8.77;;;7.87;;
9972;SDS011;5027;53.560;10.062;2023-09-08T06:10:53;8.80;;;7.90;;
9972;SDS011;5027;53.560;10.062;2023-09-08T06:13:20;10.03;;;8.07;;
9972;SDS011;5027;53.560;10.062;2023-09-08T06:15:47;14.33;;;7.70;;
9972;SDS011;5027;53.560;10.062;2023-09-08T06:18:15;10.37;;;8.40;;
9972;SDS011;5027;53.560;10.062;2023-09-08T06:20:48;11.20;;;8.13;;
9972;SDS011;5027;53.560;10.062;2023-09-08T06:23:19;12.07;;;10.27;;
9972;SDS011;5027;53.560;10.062;2023-09-08T06:25:47;9.07;;;8.17;;
9972;SDS011;5027;53.560;10.062;2023-09-08T06:28:15;8.63;;;7.80;;
9972;SDS011;5027;53.560;10.062;2023-09-08T06:30:42;11.10;;;7.63;;
9972;SDS011;5027;53.560;10.062;2023-09-08T06:33:09;10.53;;;7.80;;
9972;SDS011;5027;53.560;10.062;2023-09-08T06:35:36;9.57;;;7.40;;
9972;SDS011;5027;53.560;10.062;2023-09-08T06:38:03;7.80;;;7.00;;
9972;SDS011;5027;53.560;10.062;2023-09-08T06:40:30;9.93;;;7.50;;
9972;SDS011;5027;53.560;10.062;2023-09-08T06:42:57;8.40;;;7.60;;
9972;SDS011;5027;53.560;10.062;2023-09-08T06:45:40;9.30;;;7.40;;
9972;SDS011;5027;53.560;10.062;2023-09-08T06:48:07;10.97;;;7.43;;
9972;SDS011;5027;53.560;10.062;2023-09-08T06:50:34;8.50;;;7.20;;
9972;SDS011;5027;53.560;10.062;2023-09-08T06:53:01;10.63;;;7.60;;
9972;SDS011;5027;53.560;10.062;2023-09-08T06:55:28;12.57;;;7.37;;
9972;SDS011;5027;53.560;10.062;2023-09-08T06:57:55;17.90;;;7.73;;
9972;SDS011;5027;53.560;10.062;2023-09-08T07:00:22;11.00;;;7.87;;
9972;SDS011;5027;53.560;10.062;2023-09-08T07:02:49;9.87;;;7.70;;
9972;SDS011;5027;53.560;10.062;2023-09-08T07:05:17;9.00;;;7.57;;
9972;SDS011;5027;53.560;10.062;2023-09-08T07:07:44;10.47;;;8.03;;
9972;SDS011;5027;53.560;10.062;2023-09-08T07:10:12;9.67;;;7.67;;
9972;SDS011;5027;53.560;10.062;2023-09-08T07:12:39;8.43;;;7.50;;
9972;SDS011;5027;53.560;10.062;2023-09-08T07:15:06;11.83;;;8.20;;
9972;SDS011;5027;53.560;10.062;2023-09-08T07:17:34;8.93;;;7.63;;
9972;SDS011;5027;53.560;10.062;2023-09-08T07:20:02;9.37;;;7.23;;
9972;SDS011;5027;53.560;10.062;2023-09-08T07:22:29;8.60;;;7.50;;
9972;SDS011;5027;53.560;10.062;2023-09-08T07:24:56;11.97;;;7.90;;
9972;SDS011;5027;53.560;10.062;2023-09-08T07:27:23;8.77;;;7.87;;
9972;SDS011;5027;53.560;10.062;2023-09-08T07:29:50;10.03;;;7.83;;
9972;SDS011;5027;53.560;10.062;2023-09-08T07:32:17;9.60;;;8.60;;
9972;SDS011;5027;53.560;10.062;2023-09-08T07:34:45;8.27;;;7.40;;
9972;SDS011;5027;53.560;10.062;2023-09-08T07:37:13;9.00;;;8.10;;
9972;SDS011;5027;53.560;10.062;2023-09-08T07:39:40;8.13;;;7.27;;
9972;SDS011;5027;53.560;10.062;2023-09-08T07:42:07;9.17;;;7.70;;
9972;SDS011;5027;53.560;10.062;2023-09-08T07:44:34;7.63;;;6.93;;
9972;SDS011;5027;53.560;10.062;2023-09-08T07:47:01;14.57;;;8.07;;
9972;SDS011;5027;53.560;10.062;2023-09-08T07:49:28;10.17;;;7.00;;
9972;SDS011;5027;53.560;10.062;2023-09-08T07:51:55;10.43;;;7.60;;
9972;SDS011;5027;53.560;10.062;2023-09-08T07:54:22;13.90;;;7.43;;
9972;SDS011;5027;53.560;10.062;2023-09-08T07:56:48;7.93;;;7.23;;
9972;SDS011;5027;53.560;10.062;2023-09-08T07:59:15;8.63;;;7.70;;
9972;SDS011;5027;53.560;10.062;2023-09-08T08:01:42;12.10;;;6.60;;
9972;SDS011;5027;53.560;10.062;2023-09-08T08:04:09;8.20;;;7.50;;
9972;SDS011;5027;53.560;10.062;2023-09-08T08:06:36;9.13;;;7.40;;
9972;SDS011;5027;53.560;10.062;2023-09-08T08:09:03;8.50;;;7.70;;
9972;SDS011;5027;53.560;10.062;2023-09-08T08:11:30;8.23;;;7.27;;
9972;SDS011;5027;53.560;10.062;2023-09-08T08:13:57;8.93;;;7.00;;
9972;SDS011;5027;53.560;10.062;2023-09-08T08:16:23;9.07;;;7.57;;
9972;SDS011;5027;53.560;10.062;2023-09-08T08:18:51;11.73;;;7.53;;
9972;SDS011;5027;53.560;10.062;2023-09-08T08:21:18;8.93;;;8.00;;
9972;SDS011;5027;53.560;10.062;2023-09-08T08:23:45;8.30;;;7.17;;
9972;SDS011;5027;53.560;10.062;2023-09-08T08:26:12;8.57;;;6.97;;
9972;SDS011;5027;53.560;10.062;2023-09-08T08:28:38;9.17;;;7.07;;
9972;SDS011;5027;53.560;10.062;2023-09-08T08:31:05;11.40;;;7.30;;
9972;SDS011;5027;53.560;10.062;2023-09-08T08:33:32;10.50;;;6.73;;
9972;SDS011;5027;53.560;10.062;2023-09-08T08:35:59;8.20;;;6.77;;
9972;SDS011;5027;53.560;10.062;2023-09-08T08:38:26;10.53;;;7.10;;
9972;SDS011;5027;53.560;10.062;2023-09-08T08:40:53;10.73;;;7.00;;
9972;SDS011;5027;53.560;10.062;2023-09-08T08:43:21;7.83;;;7.03;;
9972;SDS011;5027;53.560;10.062;2023-09-08T08:45:49;8.07;;;6.47;;
9972;SDS011;5027;53.560;10.062;2023-09-08T08:48:17;9.77;;;7.23;;
9972;SDS011;5027;53.560;10.062;2023-09-08T08:50:47;9.53;;;6.90;;
9972;SDS011;5027;53.560;10.062;2023-09-08T08:53:14;8.50;;;7.23;;
9972;SDS011;5027;53.560;10.062;2023-09-08T08:55:43;7.57;;;6.87;;
9972;SDS011;5027;53.560;10.062;2023-09-08T08:58:12;8.37;;;7.03;;
9972;SDS011;5027;53.560;10.062;2023-09-08T09:00:41;8.27;;;7.00;;
9972;SDS011;5027;53.560;10.062;2023-09-08T09:03:09;15.50;;;7.00;;
9972;SDS011;5027;53.560;10.062;2023-09-08T09:05:40;9.43;;;7.10;;
9972;SDS011;5027;53.560;10.062;2023-09-08T09:08:14;7.67;;;6.30;;
9972;SDS011;5027;53.560;10.062;2023-09-08T09:10:44;12.90;;;7.40;;
9972;SDS011;5027;53.560;10.062;2023-09-08T09:13:11;8.87;;;6.57;;
9972;SDS011;5027;53.560;10.062;2023-09-08T09:15:38;9.00;;;6.73;;
9972;SDS011;5027;53.560;10.062;2023-09-08T09:18:05;7.73;;;6.67;;
9972;SDS011;5027;53.560;10.062;2023-09-08T09:20:33;8.53;;;6.63;;
9972;SDS011;5027;53.560;10.062;2023-09-08T09:23:00;8.10;;;6.87;;
9972;SDS011;5027;53.560;10.062;2023-09-08T09:25:28;11.33;;;7.63;;
9972;SDS011;5027;53.560;10.062;2023-09-08T09:27:57;9.63;;;6.70;;
9972;SDS011;5027;53.560;10.062;2023-09-08T09:30:26;8.47;;;6.60;;
9972;SDS011;5027;53.560;10.062;2023-09-08T09:33:04;14.07;;;6.60;;
9972;SDS011;5027;53.560;10.062;2023-09-08T09:38:11;8.43;;;6.17;;
9972;SDS011;5027;53.560;10.062;2023-09-08T09:40:38;6.67;;;6.03;;
9972;SDS011;5027;53.560;10.062;2023-09-08T09:43:06;7.80;;;6.90;;
9972;SDS011;5027;53.560;10.062;2023-09-08T09:45:34;10.37;;;6.23;;
9972;SDS011;5027;53.560;10.062;2023-09-08T09:48:02;9.87;;;6.43;;
9972;SDS011;5027;53.560;10.062;2023-09-08T09:50:34;8.87;;;6.23;;
9972;SDS011;5027;53.560;10.062;2023-09-08T09:53:07;7.77;;;6.97;;
9972;SDS011;5027;53.560;10.062;2023-09-08T09:55:39;11.50;;;7.53;;
9972;SDS011;5027;53.560;10.062;2023-09-08T09:58:07;9.73;;;6.30;;
9972;SDS011;5027;53.560;10.062;2023-09-08T10:00:37;7.30;;;6.33;;
9972;SDS011;5027;53.560;10.062;2023-09-08T10:03:05;7.10;;;6.33;;
9972;SDS011;5027;53.560;10.062;2023-09-08T10:05:33;13.67;;;7.13;;
9972;SDS011;5027;53.560;10.062;2023-09-08T10:08:00;11.43;;;6.30;;
9972;SDS011;5027;53.560;10.062;2023-09-08T10:10:27;7.67;;;6.20;;
9972;SDS011;5027;53.560;10.062;2023-09-08T10:13:00;8.40;;;5.87;;
9972;SDS011;5027;53.560;10.062;2023-09-08T10:15:29;7.03;;;5.90;;
9972;SDS011;5027;53.560;10.062;2023-09-08T10:18:02;7.47;;;6.20;;
9972;SDS011;5027;53.560;10.062;2023-09-08T10:20:31;7.00;;;6.40;;
9972;SDS011;5027;53.560;10.062;2023-09-08T10:26:02;7.50;;;6.20;;
9972;SDS011;5027;53.560;10.062;2023-09-08T10:28:31;8.57;;;6.87;;
9972;SDS011;5027;53.560;10.062;2023-09-08T10:31:00;8.40;;;6.60;;
9972;SDS011;5027;53.560;10.062;2023-09-08T10:33:28;6.60;;;6.00;;
9972;SDS011;5027;53.560;10.062;2023-09-08T10:35:58;9.43;;;6.17;;
9972;SDS011;5027;53.560;10.062;2023-09-08T10:38:26;7.07;;;6.30;;
9972;SDS011;5027;53.560;10.062;2023-09-08T10:40:53;9.00;;;6.30;;
9972;SDS011;5027;53.560;10.062;2023-09-08T10:43:40;11.30;;;6.00;;
9972;SDS011;5027;53.560;10.062;2023-09-08T10:46:10;7.13;;;6.43;;
9972;SDS011;5027;53.560;10.062;2023-09-08T10:48:47;8.23;;;6.63;;
9972;SDS011;5027;53.560;10.062;2023-09-08T10:51:19;13.70;;;6.70;;
9972;SDS011;5027;53.560;10.062;2023-09-08T10:53:47;10.27;;;6.30;;
9972;SDS011;5027;53.560;10.062;2023-09-08T10:56:17;12.00;;;6.63;;
9972;SDS011;5027;53.560;10.062;2023-09-08T10:58:50;9.47;;;6.03;;
9972;SDS011;5027;53.560;10.062;2023-09-08T11:01:19;7.30;;;5.93;;
9972;SDS011;5027;53.560;10.062;2023-09-08T11:03:53;7.97;;;6.07;;
9972;SDS011;5027;53.560;10.062;2023-09-08T11:06:21;6.83;;;6.07;;
9972;SDS011;5027;53.560;10.062;2023-09-08T11:08:49;7.50;;;6.10;;
9972;SDS011;5027;53.560;10.062;2023-09-08T11:11:22;7.70;;;5.93;;
9972;SDS011;5027;53.560;10.062;2023-09-08T11:13:48;6.53;;;5.93;;
9972;SDS011;5027;53.560;10.062;2023-09-08T11:16:15;8.00;;;6.17;;
9972;SDS011;5027;53.560;10.062;2023-09-08T11:18:42;7.93;;;6.30;;
9972;SDS011;5027;53.560;10.062;2023-09-08T11:21:12;7.17;;;5.97;;
9972;SDS011;5027;53.560;10.062;2023-09-08T11:23:38;9.73;;;5.93;;
9972;SDS011;5027;53.560;10.062;2023-09-08T11:26:06;9.40;;;6.27;;
9972;SDS011;5027;53.560;10.062;2023-09-08T11:28:35;7.23;;;5.73;;
9972;SDS011;5027;53.560;10.062;2023-09-08T11:31:03;9.13;;;6.27;;
9972;SDS011;5027;53.560;10.062;2023-09-08T11:33:33;7.17;;;5.50;;
9972;SDS011;5027;53.560;10.062;2023-09-08T11:36:01;6.60;;;5.77;;
9972;SDS011;5027;53.560;10.062;2023-09-08T11:38:28;6.97;;;6.27;;
9972;SDS011;5027;53.560;10.062;2023-09-08T11:40:57;6.70;;;5.93;;
9972;SDS011;5027;53.560;10.062;2023-09-08T11:43:27;6.30;;;5.70;;
9972;SDS011;5027;53.560;10.062;2023-09-08T11:45:55;10.03;;;6.47;;
9972;SDS011;5027;53.560;10.062;2023-09-08T11:48:23;6.53;;;5.97;;
9972;SDS011;5027;53.560;10.062;2023-09-08T11:50:53;6.40;;;5.80;;
9972;SDS011;5027;53.560;10.062;2023-09-08T11:53:20;7.60;;;6.00;;
9972;SDS011;5027;53.560;10.062;2023-09-08T11:55:48;6.97;;;6.30;;
9972;SDS011;5027;53.560;10.062;2023-09-08T11:58:15;6.80;;;6.07;;
9972;SDS011;5027;53.560;10.062;2023-09-08T12:00:44;6.20;;;5.60;;
9972;SDS011;5027;53.560;10.062;2023-09-08T12:03:14;8.30;;;5.80;;
9972;SDS011;5027;53.560;10.062;2023-09-08T12:05:43;6.17;;;5.67;;
9972;SDS011;5027;53.560;10.062;2023-09-08T12:08:16;6.73;;;6.13;;
9972;SDS011;5027;53.560;10.062;2023-09-08T12:10:43;7.67;;;5.93;;
9972;SDS011;5027;53.560;10.062;2023-09-08T12:13:10;8.20;;;6.50;;
9972;SDS011;5027;53.560;10.062;2023-09-08T12:15:40;8.63;;;6.13;;
9972;SDS011;5027;53.560;10.062;2023-09-08T12:18:08;6.17;;;5.57;;
9972;SDS011;5027;53.560;10.062;2023-09-08T12:20:38;9.57;;;5.73;;
9972;SDS011;5027;53.560;10.062;2023-09-08T12:23:06;8.53;;;6.00;;
9972;SDS011;5027;53.560;10.062;2023-09-08T12:25:45;8.50;;;5.93;;
9972;SDS011;5027;53.560;10.062;2023-09-08T12:28:17;9.03;;;5.77;;
9972;SDS011;5027;53.560;10.062;2023-09-08T12:30:48;6.97;;;5.60;;
9972;SDS011;5027;53.560;10.062;2023-09-08T12:33:16;6.70;;;6.10;;
9972;SDS011;5027;53.560;10.062;2023-09-08T12:35:47;6.80;;;5.87;;
9972;SDS011;5027;53.560;10.062;2023-09-08T12:38:18;7.43;;;6.17;;
9972;SDS011;5027;53.560;10.062;2023-09-08T12:40:45;8.93;;;6.17;;
9972;SDS011;5027;53.560;10.062;2023-09-08T12:43:12;6.43;;;5.80;;
9972;SDS011;5027;53.560;10.062;2023-09-08T12:45:56;9.50;;;6.10;;
9972;SDS011;5027;53.560;10.062;2023-09-08T12:48:23;6.07;;;5.30;;
9972;SDS011;5027;53.560;10.062;2023-09-08T12:50:50;9.00;;;5.50;;
9972;SDS011;5027;53.560;10.062;2023-09-08T12:53:17;7.40;;;5.83;;
9972;SDS011;5027;53.560;10.062;2023-09-08T12:55:47;10.13;;;5.40;;
9972;SDS011;5027;53.560;10.062;2023-09-08T12:58:15;7.00;;;6.27;;
9972;SDS011;5027;53.560;10.062;2023-09-08T13:00:43;4.90;;;4.50;;
9972;SDS011;5027;53.560;10.062;2023-09-08T13:03:10;8.53;;;5.37;;
9972;SDS011;5027;53.560;10.062;2023-09-08T13:05:37;8.63;;;5.47;;
9972;SDS011;5027;53.560;10.062;2023-09-08T13:08:05;9.67;;;5.27;;
9972;SDS011;5027;53.560;10.062;2023-09-08T13:10:32;7.83;;;5.50;;
9972;SDS011;5027;53.560;10.062;2023-09-08T13:13:00;6.00;;;5.17;;
9972;SDS011;5027;53.560;10.062;2023-09-08T13:15:27;6.00;;;4.87;;
9972;SDS011;5027;53.560;10.062;2023-09-08T13:17:54;10.63;;;4.97;;
9972;SDS011;5027;53.560;10.062;2023-09-08T13:20:21;7.37;;;4.87;;
9972;SDS011;5027;53.560;10.062;2023-09-08T13:22:48;7.80;;;5.30;;
9972;SDS011;5027;53.560;10.062;2023-09-08T13:25:15;5.57;;;4.53;;
9972;SDS011;5027;53.560;10.062;2023-09-08T13:27:42;6.47;;;4.50;;
9972;SDS011;5027;53.560;10.062;2023-09-08T13:30:14;8.77;;;4.60;;
9972;SDS011;5027;53.560;10.062;2023-09-08T13:32:42;5.60;;;4.77;;
9972;SDS011;5027;53.560;10.062;2023-09-08T13:35:10;9.63;;;4.93;;
9972;SDS011;5027;53.560;10.062;2023-09-08T13:37:38;5.70;;;5.20;;
9972;SDS011;5027;53.560;10.062;2023-09-08T13:40:05;5.80;;;5.30;;
9972;SDS011;5027;53.560;10.062;2023-09-08T13:42:34;10.00;;;5.40;;
9972;SDS011;5027;53.560;10.062;2023-09-08T13:45:01;5.60;;;4.83;;
9972;SDS011;5027;53.560;10.062;2023-09-08T13:47:29;5.80;;;5.30;;
9972;SDS011;5027;53.560;10.062;2023-09-08T13:49:57;7.70;;;4.70;;
9972;SDS011;5027;53.560;10.062;2023-09-08T13:52:26;6.77;;;5.50;;
9972;SDS011;5027;53.560;10.062;2023-09-08T13:54:57;9.00;;;5.17;;
9972;SDS011;5027;53.560;10.062;2023-09-08T13:57:27;7.23;;;5.33;;
9972;SDS011;5027;53.560;10.062;2023-09-08T13:59:54;5.83;;;5.33;;
9972;SDS011;5027;53.560;10.062;2023-09-08T14:02:23;5.63;;;5.07;;
9972;SDS011;5027;53.560;10.062;2023-09-08T14:04:53;7.40;;;6.13;;
9972;SDS011;5027;53.560;10.062;2023-09-08T14:07:26;5.40;;;4.90;;
9972;SDS011;5027;53.560;10.062;2023-09-08T14:10:02;5.47;;;5.07;;
9972;SDS011;5027;53.560;10.062;2023-09-08T14:12:36;6.27;;;5.67;;
9972;SDS011;5027;53.560;10.062;2023-09-08T14:15:03;9.40;;;5.67;;
9972;SDS011;5027;53.560;10.062;2023-09-08T14:17:30;10.30;;;5.93;;
9972;SDS011;5027;53.560;10.062;2023-09-08T14:19:57;8.70;;;5.30;;
9972;SDS011;5027;53.560;10.062;2023-09-08T14:22:24;7.70;;;5.30;;
9972;SDS011;5027;53.560;10.062;2023-09-08T14:24:52;5.80;;;5.30;;
9972;SDS011;5027;53.560;10.062;2023-09-08T14:27:19;5.23;;;4.83;;
9972;SDS011;5027;53.560;10.062;2023-09-08T14:29:46;5.80;;;5.00;;
9972;SDS011;5027;53.560;10.062;2023-09-08T14:32:12;7.83;;;5.30;;
9972;SDS011;5027;53.560;10.062;2023-09-08T14:34:39;5.77;;;5.23;;
9972;SDS011;5027;53.560;10.062;2023-09-08T14:37:06;6.23;;;4.90;;
9972;SDS011;5027;53.560;10.062;2023-09-08T14:39:36;5.80;;;5.30;;
9972;SDS011;5027;53.560;10.062;2023-09-08T14:42:03;6.20;;;5.60;;
9972;SDS011;5027;53.560;10.062;2023-09-08T14:44:31;14.47;;;5.57;;
9972;SDS011;5027;53.560;10.062;2023-09-08T14:46:58;7.13;;;6.00;;
9972;SDS011;5027;53.560;10.062;2023-09-08T14:49:25;5.93;;;5.43;;
9972;SDS011;5027;53.560;10.062;2023-09-08T14:51:51;6.33;;;4.97;;
9972;SDS011;5027;53.560;10.062;2023-09-08T14:54:20;6.27;;;5.63;;
9972;SDS011;5027;53.560;10.062;2023-09-08T14:56:47;5.43;;;4.93;;
9972;SDS011;5027;53.560;10.062;2023-09-08T14:59:14;5.97;;;5.07;;
9972;SDS011;5027;53.560;10.062;2023-09-08T15:01:41;6.17;;;5.67;;
9972;SDS011;5027;53.560;10.062;2023-09-08T15:04:09;6.10;;;5.50;;
9972;SDS011;5027;53.560;10.062;2023-09-08T15:06:40;6.37;;;5.70;;
9972;SDS011;5027;53.560;10.062;2023-09-08T15:09:06;7.77;;;5.33;;
9972;SDS011;5027;53.560;10.062;2023-09-08T15:11:33;6.07;;;5.57;;